Vejle, Denmark
Current Conditions -  °F | °C
As of 8:50 PM on Friday 31 Oct 2014 (Local Time) from EKBI Reporting Station
Haze Haze  
Wind Chill: 55°   Ceiling: 400
Heat Index: 55°   Visibility: 1.1mi
Dew Point: 54°   Wind: 8mph
Humidity: 94%   Direction: 180°S
Pressure: 30.12"   Gusts: NA
Location:  55.71°N, 9.54°E
Report Text: EKBI 311950Z AUTO 18007KT 150V220 1800NDV BR OVC004/// 13/12 Q1020
Loading
Personal Weather Stations






























Interactive Weather Map
Tropical Storm Tracking
New forecast layout! Learn more

10-Day Weather Forecast

Advertisements
Track Severe Weather on mobile